createdAt,value
2022-08-31T00:01:47.458Z,8.20
2022-08-31T00:03:52.593Z,7.60
2022-08-31T00:06:00.694Z,8.90
2022-08-31T00:08:06.026Z,8.50
2022-08-31T00:10:15.735Z,8.30
2022-08-31T00:12:21.515Z,8.50
2022-08-31T00:14:27.321Z,6.60
2022-08-31T00:16:34.638Z,6.60
2022-08-31T00:18:43.377Z,6.70
2022-08-31T00:20:48.903Z,6.90
2022-08-31T00:22:54.005Z,5.90
2022-08-31T00:25:03.019Z,6.30
2022-08-31T00:27:08.256Z,6.60
2022-08-31T00:29:13.728Z,6.00
2022-08-31T00:31:19.017Z,6.60
2022-08-31T00:33:28.156Z,7.00
2022-08-31T00:35:39.302Z,7.50
2022-08-31T00:37:46.876Z,6.20
2022-08-31T00:39:51.851Z,5.90
2022-08-31T00:42:00.170Z,6.60
2022-08-31T00:44:09.770Z,6.20
2022-08-31T00:46:21.556Z,6.00
2022-08-31T00:48:26.459Z,7.20
2022-08-31T00:50:33.748Z,6.60
2022-08-31T00:52:56.294Z,6.10
2022-08-31T00:55:06.352Z,8.20
2022-08-31T00:57:12.252Z,7.30
2022-08-31T00:59:21.261Z,6.70
2022-08-31T01:01:26.611Z,6.70
2022-08-31T01:03:35.385Z,6.70
2022-08-31T01:05:46.533Z,7.30
2022-08-31T01:07:53.151Z,7.30
2022-08-31T01:09:59.011Z,6.40
2022-08-31T01:12:08.171Z,7.30
2022-08-31T01:14:15.316Z,7.60
2022-08-31T01:16:26.701Z,6.90
2022-08-31T01:18:33.602Z,7.10
2022-08-31T01:20:49.006Z,6.50
2022-08-31T01:23:13.093Z,6.80
2022-08-31T01:25:20.174Z,6.60
2022-08-31T01:27:28.640Z,6.50
2022-08-31T01:29:37.066Z,7.50
2022-08-31T01:31:48.780Z,6.20
2022-08-31T01:33:56.155Z,7.90
2022-08-31T01:36:04.726Z,7.10
2022-08-31T01:38:09.944Z,6.40
2022-08-31T01:40:19.864Z,7.10
2022-08-31T01:42:30.924Z,7.40
2022-08-31T01:44:39.233Z,6.90
2022-08-31T01:46:44.960Z,7.20
2022-08-31T01:48:50.874Z,6.80
2022-08-31T01:50:56.855Z,6.90
2022-08-31T01:53:01.752Z,7.10
2022-08-31T01:55:11.521Z,6.80
2022-08-31T01:57:16.459Z,7.90
2022-08-31T01:59:53.134Z,7.00
2022-08-31T02:02:21.141Z,7.30
2022-08-31T02:04:28.159Z,7.70
2022-08-31T02:06:35.560Z,6.90
2022-08-31T02:08:41.145Z,6.80
2022-08-31T02:10:46.834Z,7.20
2022-08-31T02:12:53.734Z,9.10
2022-08-31T02:15:09.342Z,7.00
2022-08-31T02:17:15.842Z,8.20
2022-08-31T02:19:20.985Z,8.20
2022-08-31T02:21:26.871Z,6.60
2022-08-31T02:23:35.674Z,8.20
2022-08-31T02:25:44.650Z,8.10
2022-08-31T02:27:50.179Z,7.40
2022-08-31T02:29:58.901Z,7.30
2022-08-31T02:32:04.928Z,6.90
2022-08-31T02:34:10.334Z,6.80
2022-08-31T02:36:18.637Z,7.20
2022-08-31T02:38:25.881Z,7.30
2022-08-31T02:40:33.769Z,7.50
2022-08-31T02:42:52.390Z,7.70
2022-08-31T02:45:02.710Z,7.00
2022-08-31T02:47:07.804Z,7.00
2022-08-31T02:49:12.765Z,7.80
2022-08-31T02:51:17.841Z,7.30
2022-08-31T02:53:25.126Z,7.20
2022-08-31T02:55:34.152Z,9.00
2022-08-31T02:57:39.375Z,6.80
2022-08-31T02:59:45.024Z,8.50
2022-08-31T03:01:50.048Z,7.10
2022-08-31T03:03:55.797Z,7.40
2022-08-31T03:06:01.336Z,7.40
2022-08-31T03:08:07.221Z,7.30
2022-08-31T03:10:16.510Z,8.30
2022-08-31T03:12:21.629Z,7.80
2022-08-31T03:14:26.783Z,8.20
2022-08-31T03:16:36.025Z,8.40
2022-08-31T03:18:44.157Z,7.10
2022-08-31T03:20:49.972Z,7.10
2022-08-31T03:22:55.309Z,7.90
2022-08-31T03:25:00.732Z,7.60
2022-08-31T03:27:08.665Z,9.20
2022-08-31T03:29:13.927Z,7.60
2022-08-31T03:31:38.252Z,6.90
2022-08-31T03:33:43.141Z,7.40
2022-08-31T03:35:48.903Z,7.70
2022-08-31T03:37:57.579Z,7.00
2022-08-31T03:40:03.249Z,8.40
2022-08-31T03:42:11.193Z,8.10
2022-08-31T03:44:16.094Z,8.80
2022-08-31T03:46:23.621Z,7.00
2022-08-31T03:48:32.349Z,7.40
2022-08-31T03:50:38.126Z,7.90
2022-08-31T03:52:50.579Z,7.60
2022-08-31T03:54:57.013Z,7.90
2022-08-31T03:57:02.379Z,7.80
2022-08-31T03:59:10.592Z,8.40
2022-08-31T04:01:35.735Z,7.00
2022-08-31T04:04:17.278Z,7.00
2022-08-31T04:06:44.890Z,9.30
2022-08-31T04:09:19.596Z,8.30
2022-08-31T04:11:44.894Z,8.10
2022-08-31T04:14:15.488Z,6.90
2022-08-31T04:16:22.867Z,7.10
2022-08-31T04:18:48.717Z,7.90
2022-08-31T04:20:53.805Z,8.30
2022-08-31T04:22:59.071Z,7.50
2022-08-31T04:25:10.908Z,7.50
2022-08-31T04:27:16.206Z,8.60
2022-08-31T04:29:21.769Z,7.80
2022-08-31T04:31:28.257Z,8.30
2022-08-31T04:33:34.607Z,7.20
2022-08-31T04:35:43.224Z,8.70
2022-08-31T04:37:48.146Z,9.20
2022-08-31T04:39:54.283Z,8.10
2022-08-31T04:42:00.176Z,8.50
2022-08-31T04:44:06.993Z,9.00
2022-08-31T04:46:12.304Z,8.10
2022-08-31T04:48:17.479Z,8.40
2022-08-31T04:50:23.013Z,8.60
2022-08-31T04:52:49.777Z,8.50
2022-08-31T04:55:10.786Z,9.60
2022-08-31T04:57:16.106Z,11.20
2022-08-31T04:59:24.584Z,8.60
2022-08-31T05:01:45.555Z,8.90
2022-08-31T05:04:13.477Z,8.10
2022-08-31T05:06:23.284Z,9.00
2022-08-31T05:08:31.326Z,8.50
2022-08-31T05:10:40.584Z,8.80
2022-08-31T05:12:45.911Z,9.20
2022-08-31T05:14:51.947Z,7.80
2022-08-31T05:17:00.983Z,10.60
2022-08-31T05:19:06.927Z,9.60
2022-08-31T05:21:14.403Z,9.20
2022-08-31T05:23:22.523Z,9.50
2022-08-31T05:25:27.894Z,8.90
2022-08-31T05:27:32.844Z,9.10
2022-08-31T05:29:37.945Z,11.00
2022-08-31T05:32:11.640Z,10.40
2022-08-31T05:34:21.078Z,10.20
2022-08-31T05:36:26.209Z,10.00
2022-08-31T05:38:31.153Z,10.30
2022-08-31T05:40:38.952Z,9.70
2022-08-31T05:42:43.911Z,8.70
2022-08-31T05:44:49.001Z,7.80
2022-08-31T05:46:57.484Z,7.80
2022-08-31T05:49:11.910Z,10.80
2022-08-31T05:51:22.907Z,8.80
2022-08-31T05:53:28.313Z,9.30
2022-08-31T05:55:33.159Z,8.50
2022-08-31T05:57:40.661Z,9.10
2022-08-31T05:59:51.548Z,7.90
2022-08-31T06:01:57.713Z,10.20
2022-08-31T06:04:08.735Z,8.80
2022-08-31T06:06:14.218Z,9.10
2022-08-31T06:08:27.362Z,7.80
2022-08-31T06:10:35.362Z,8.30
2022-08-31T06:12:40.715Z,8.60
2022-08-31T06:14:47.939Z,8.30
2022-08-31T06:16:57.846Z,8.50
2022-08-31T06:19:03.311Z,7.80
2022-08-31T06:21:17.096Z,7.70
2022-08-31T06:23:22.100Z,9.30
2022-08-31T06:25:27.949Z,8.70
2022-08-31T06:27:39.273Z,7.80
2022-08-31T06:29:45.604Z,8.90
2022-08-31T06:31:59.234Z,7.90
2022-08-31T06:34:06.599Z,8.50
2022-08-31T06:36:35.671Z,10.70
2022-08-31T06:39:12.603Z,8.10
2022-08-31T06:41:36.219Z,8.50
2022-08-31T06:44:14.106Z,8.80
2022-08-31T06:46:36.417Z,10.30
2022-08-31T06:48:53.720Z,8.50
2022-08-31T06:50:59.882Z,7.50
2022-08-31T06:53:05.245Z,7.60
2022-08-31T06:55:33.924Z,7.90
2022-08-31T06:57:57.358Z,8.40
2022-08-31T07:00:33.843Z,7.20
2022-08-31T07:02:54.739Z,9.30
2022-08-31T07:05:02.800Z,7.20
2022-08-31T07:07:11.620Z,8.80
2022-08-31T07:09:18.099Z,8.60
2022-08-31T07:11:26.685Z,8.50
2022-08-31T07:13:31.947Z,9.10
2022-08-31T07:15:40.881Z,9.50
2022-08-31T07:17:48.811Z,8.20
2022-08-31T07:19:54.006Z,7.70
2022-08-31T07:22:01.674Z,9.90
2022-08-31T07:24:08.073Z,9.70
2022-08-31T07:26:15.869Z,7.90
2022-08-31T07:28:21.654Z,7.90
2022-08-31T07:30:33.238Z,8.40
2022-08-31T07:32:39.462Z,9.00
2022-08-31T07:34:55.945Z,10.30
2022-08-31T07:37:05.068Z,8.50
2022-08-31T07:39:10.844Z,8.50
2022-08-31T07:41:21.228Z,9.30
2022-08-31T07:43:28.579Z,8.10
2022-08-31T07:45:39.429Z,9.30
2022-08-31T07:47:45.366Z,8.10
2022-08-31T07:49:53.580Z,8.30
2022-08-31T07:52:19.318Z,8.80
2022-08-31T07:55:03.142Z,8.10
2022-08-31T07:57:19.265Z,8.30
2022-08-31T07:59:25.112Z,7.40
2022-08-31T08:01:31.464Z,8.30
2022-08-31T08:03:41.978Z,7.50
2022-08-31T08:06:06.425Z,7.80
2022-08-31T08:08:22.208Z,8.30
2022-08-31T08:10:52.734Z,7.80
2022-08-31T08:13:21.742Z,8.00
2022-08-31T08:15:35.635Z,7.80
2022-08-31T08:17:40.948Z,7.00
2022-08-31T08:19:46.968Z,10.90
2022-08-31T08:21:51.841Z,8.40
2022-08-31T08:24:02.284Z,9.30
2022-08-31T08:26:48.943Z,8.10
2022-08-31T08:29:15.342Z,9.60
2022-08-31T08:31:22.250Z,8.30
2022-08-31T08:33:27.660Z,7.20
2022-08-31T08:35:36.012Z,8.20
2022-08-31T08:37:57.891Z,7.20
2022-08-31T08:40:13.410Z,8.50
2022-08-31T08:42:23.156Z,7.50
2022-08-31T08:44:30.799Z,8.90
2022-08-31T08:46:39.959Z,7.70
2022-08-31T08:48:55.664Z,7.80
2022-08-31T08:51:13.137Z,8.80
2022-08-31T08:53:33.743Z,7.60
2022-08-31T08:56:23.215Z,7.70
2022-08-31T08:58:27.930Z,8.40
2022-08-31T09:00:32.821Z,8.10
2022-08-31T09:02:47.213Z,7.50
2022-08-31T09:05:15.687Z,9.70
2022-08-31T09:08:20.830Z,7.90
2022-08-31T09:10:34.563Z,8.20
2022-08-31T09:12:48.495Z,8.20
2022-08-31T09:15:14.515Z,8.20
2022-08-31T09:17:35.331Z,7.70
2022-08-31T09:19:40.496Z,8.20
2022-08-31T09:21:53.702Z,6.60
2022-08-31T09:24:08.048Z,8.30
2022-08-31T09:26:33.127Z,8.40
2022-08-31T09:28:47.313Z,7.30
2022-08-31T09:30:53.198Z,9.30
2022-08-31T09:32:58.752Z,9.30
2022-08-31T09:35:14.850Z,8.10
2022-08-31T09:37:22.654Z,8.50
2022-08-31T09:39:37.285Z,7.90
2022-08-31T09:41:42.405Z,7.40
2022-08-31T09:43:47.513Z,9.20
2022-08-31T09:46:02.709Z,9.10
2022-08-31T09:48:11.556Z,9.50
2022-08-31T09:50:37.592Z,8.50
2022-08-31T09:52:42.339Z,9.10
2022-08-31T09:54:55.946Z,9.50
2022-08-31T09:57:03.728Z,8.50
2022-08-31T09:59:09.936Z,8.00
2022-08-31T10:01:19.236Z,7.40
2022-08-31T10:03:28.105Z,8.80
2022-08-31T10:05:42.893Z,9.90
2022-08-31T10:07:53.419Z,7.40
2022-08-31T10:10:02.135Z,7.50
2022-08-31T10:12:11.672Z,8.70
2022-08-31T10:14:32.424Z,7.30
2022-08-31T10:16:41.431Z,7.70
2022-08-31T10:18:55.689Z,8.30
2022-08-31T10:21:07.724Z,8.10
2022-08-31T10:23:22.213Z,7.90
2022-08-31T10:25:34.672Z,8.00
2022-08-31T10:27:46.519Z,7.40
2022-08-31T10:30:03.016Z,8.50
2022-08-31T10:32:23.026Z,7.80
2022-08-31T10:34:32.139Z,7.50
2022-08-31T10:36:40.038Z,7.80
2022-08-31T10:38:48.370Z,8.10
2022-08-31T10:41:06.359Z,7.90
2022-08-31T10:43:17.913Z,6.10
2022-08-31T10:45:25.719Z,7.80
2022-08-31T10:47:34.185Z,7.30
2022-08-31T10:49:43.436Z,7.50
2022-08-31T10:51:57.409Z,7.50
2022-08-31T10:54:27.445Z,6.50
2022-08-31T10:56:40.269Z,7.80
2022-08-31T10:59:02.966Z,8.00
2022-08-31T11:01:16.903Z,6.70
2022-08-31T11:03:40.468Z,7.80
2022-08-31T11:05:51.540Z,7.70
2022-08-31T11:08:06.123Z,7.80
2022-08-31T11:10:24.604Z,5.90
2022-08-31T11:12:34.711Z,6.80
2022-08-31T11:15:14.353Z,7.10
2022-08-31T11:17:36.270Z,7.00
2022-08-31T11:19:59.924Z,6.50
2022-08-31T11:22:25.648Z,8.70
2022-08-31T11:25:00.983Z,6.20
2022-08-31T11:27:19.099Z,6.90
2022-08-31T11:29:37.761Z,6.00
2022-08-31T11:31:45.307Z,6.40
2022-08-31T11:34:15.014Z,5.70
2022-08-31T11:36:43.240Z,6.00
2022-08-31T11:38:52.126Z,7.80
2022-08-31T11:41:02.081Z,8.00
2022-08-31T11:43:07.459Z,5.70
2022-08-31T11:45:27.971Z,6.10
2022-08-31T11:47:39.579Z,7.00
2022-08-31T11:49:48.973Z,7.80
2022-08-31T11:51:56.661Z,5.60
2022-08-31T11:54:04.307Z,5.70
2022-08-31T11:56:11.941Z,7.10
2022-08-31T11:58:31.559Z,5.40
2022-08-31T12:00:52.218Z,5.80
2022-08-31T12:03:31.487Z,6.20
2022-08-31T12:05:47.942Z,5.50
2022-08-31T12:07:52.970Z,6.70
2022-08-31T12:10:29.310Z,6.80
2022-08-31T12:12:57.622Z,7.20
2022-08-31T12:15:18.338Z,7.00
2022-08-31T12:17:27.946Z,7.10
2022-08-31T12:19:47.151Z,6.00
2022-08-31T12:21:59.226Z,7.20
2022-08-31T12:24:19.013Z,7.00
2022-08-31T12:27:10.562Z,6.80
2022-08-31T12:29:29.693Z,5.60
2022-08-31T12:31:37.318Z,6.20
2022-08-31T12:33:57.046Z,6.10
2022-08-31T12:36:17.669Z,6.20
2022-08-31T12:38:24.533Z,6.40
2022-08-31T12:40:30.565Z,6.90
2022-08-31T12:42:42.290Z,5.80
2022-08-31T12:44:53.181Z,6.50
2022-08-31T12:47:07.210Z,7.30
2022-08-31T12:49:29.363Z,8.60
2022-08-31T12:51:43.332Z,7.10
2022-08-31T12:54:01.499Z,6.20
2022-08-31T12:56:14.488Z,6.70
2022-08-31T12:58:38.131Z,7.90
2022-08-31T13:00:43.535Z,6.30
2022-08-31T13:02:51.422Z,6.30
2022-08-31T13:04:56.741Z,6.30
2022-08-31T13:07:17.968Z,6.10
2022-08-31T13:09:31.068Z,7.70
2022-08-31T13:11:40.940Z,7.90
2022-08-31T13:13:46.256Z,6.40
2022-08-31T13:15:51.687Z,6.50
2022-08-31T13:17:56.790Z,6.80
2022-08-31T13:20:03.077Z,6.20
2022-08-31T13:22:13.184Z,8.00
2022-08-31T13:24:23.783Z,9.10
2022-08-31T13:26:31.469Z,6.90
2022-08-31T13:28:36.179Z,6.20
2022-08-31T13:30:43.581Z,5.90
2022-08-31T13:33:00.231Z,7.90
2022-08-31T13:35:11.201Z,7.00
2022-08-31T13:37:23.719Z,8.40
2022-08-31T13:39:31.734Z,6.20
2022-08-31T13:41:40.779Z,6.40
2022-08-31T13:43:53.248Z,6.30
2022-08-31T13:45:58.333Z,6.30
2022-08-31T13:48:07.357Z,6.30
2022-08-31T13:50:21.666Z,5.50
2022-08-31T13:52:29.168Z,6.80
2022-08-31T13:54:36.128Z,6.90
2022-08-31T13:56:45.471Z,7.20
2022-08-31T13:58:50.424Z,7.90
2022-08-31T14:01:15.238Z,6.90
2022-08-31T14:03:49.669Z,6.40
2022-08-31T14:05:54.343Z,9.50
2022-08-31T14:08:02.569Z,6.40
2022-08-31T14:10:22.132Z,6.60
2022-08-31T14:12:30.500Z,6.50
2022-08-31T14:14:43.091Z,6.30
2022-08-31T14:16:49.100Z,7.70
2022-08-31T14:18:57.489Z,6.10
2022-08-31T14:21:28.631Z,7.00
2022-08-31T14:23:36.747Z,6.70
2022-08-31T14:25:41.625Z,7.70
2022-08-31T14:27:46.473Z,5.90
2022-08-31T14:29:51.385Z,5.80
2022-08-31T14:31:56.567Z,6.30
2022-08-31T14:34:23.362Z,6.50
2022-08-31T14:36:32.334Z,5.60
2022-08-31T14:38:39.974Z,5.70
2022-08-31T14:40:47.774Z,5.50
2022-08-31T14:42:52.831Z,8.00
2022-08-31T14:45:00.863Z,5.20
2022-08-31T14:47:06.234Z,6.30
2022-08-31T14:49:11.392Z,5.80
2022-08-31T14:51:16.227Z,5.60
2022-08-31T14:53:21.136Z,5.40
2022-08-31T14:55:27.535Z,5.50
2022-08-31T14:57:33.731Z,6.80
2022-08-31T14:59:45.015Z,6.90
2022-08-31T15:01:49.934Z,6.50
2022-08-31T15:03:55.237Z,6.60
2022-08-31T15:06:00.073Z,6.10
2022-08-31T15:08:05.381Z,5.70
2022-08-31T15:10:12.057Z,5.90
2022-08-31T15:12:17.080Z,5.50
2022-08-31T15:14:21.916Z,5.80
2022-08-31T15:16:26.947Z,6.60
2022-08-31T15:18:35.498Z,9.70
2022-08-31T15:20:43.394Z,8.40
2022-08-31T15:22:48.441Z,9.70
2022-08-31T15:24:56.152Z,8.40
2022-08-31T15:27:01.114Z,9.40
2022-08-31T15:29:05.862Z,7.90
2022-08-31T15:31:19.763Z,8.50
2022-08-31T15:33:24.588Z,8.70
2022-08-31T15:35:29.572Z,7.20
2022-08-31T15:37:34.555Z,8.30
2022-08-31T15:39:41.420Z,9.30
2022-08-31T15:41:46.192Z,8.90
2022-08-31T15:43:51.829Z,8.80
2022-08-31T15:46:00.474Z,8.10
2022-08-31T15:48:06.149Z,8.80
2022-08-31T15:50:11.336Z,7.10
2022-08-31T15:52:16.279Z,7.60
2022-08-31T15:54:24.933Z,7.90
2022-08-31T15:56:29.948Z,9.30
2022-08-31T15:58:35.949Z,7.30
2022-08-31T16:00:44.312Z,9.10
2022-08-31T16:02:49.340Z,8.10
2022-08-31T16:04:55.920Z,7.10
2022-08-31T16:07:04.517Z,8.40
2022-08-31T16:09:11.125Z,7.80
2022-08-31T16:11:19.218Z,8.10
2022-08-31T16:13:26.894Z,7.60
2022-08-31T16:15:32.959Z,7.90
2022-08-31T16:17:39.036Z,8.60
2022-08-31T16:19:44.022Z,7.90
2022-08-31T16:21:49.597Z,7.60
2022-08-31T16:24:00.477Z,8.40
2022-08-31T16:26:05.717Z,7.50
2022-08-31T16:28:16.711Z,8.80
2022-08-31T16:30:26.186Z,7.20
2022-08-31T16:32:34.021Z,9.40
2022-08-31T16:34:40.823Z,8.50
2022-08-31T16:36:47.396Z,8.50
2022-08-31T16:38:53.397Z,10.40
2022-08-31T16:41:02.512Z,8.60
2022-08-31T16:43:08.895Z,8.30
2022-08-31T16:45:15.480Z,8.20
2022-08-31T16:47:22.867Z,8.70
2022-08-31T16:49:28.105Z,7.90
2022-08-31T16:51:33.739Z,9.90
2022-08-31T16:53:38.569Z,9.30
2022-08-31T16:55:44.883Z,9.10
2022-08-31T16:57:49.683Z,9.70
2022-08-31T16:59:56.081Z,8.10
2022-08-31T17:02:01.996Z,9.30
2022-08-31T17:04:10.028Z,9.90
2022-08-31T17:06:15.220Z,8.30
2022-08-31T17:08:20.225Z,8.90
2022-08-31T17:10:29.002Z,9.60
2022-08-31T17:12:34.069Z,8.20
2022-08-31T17:14:41.872Z,8.50
2022-08-31T17:16:50.572Z,10.50
2022-08-31T17:18:57.088Z,11.80
2022-08-31T17:21:01.920Z,10.70
2022-08-31T17:23:07.576Z,9.50
2022-08-31T17:25:12.553Z,9.00
2022-08-31T17:27:20.381Z,6.40
2022-08-31T17:29:26.227Z,7.70
2022-08-31T17:31:35.920Z,7.50
2022-08-31T17:33:40.757Z,5.10
2022-08-31T17:35:45.807Z,6.30
2022-08-31T17:37:50.708Z,5.80
2022-08-31T17:39:56.869Z,5.40
2022-08-31T17:42:02.267Z,6.10
2022-08-31T17:44:08.248Z,6.90
2022-08-31T17:46:14.240Z,5.90
2022-08-31T17:48:19.236Z,7.30
2022-08-31T17:50:24.410Z,6.20
2022-08-31T17:52:29.568Z,6.00
2022-08-31T17:54:35.548Z,7.70
2022-08-31T17:56:42.402Z,7.50
2022-08-31T17:58:54.769Z,6.50
2022-08-31T18:00:59.763Z,6.10
2022-08-31T18:03:04.613Z,5.90
2022-08-31T18:05:12.065Z,7.10
2022-08-31T18:07:17.109Z,7.00
2022-08-31T18:09:23.930Z,6.60
2022-08-31T18:11:29.645Z,7.10
2022-08-31T18:13:35.590Z,6.80
2022-08-31T18:15:40.523Z,7.00
2022-08-31T18:17:45.271Z,6.30
2022-08-31T18:19:50.388Z,8.70
2022-08-31T18:21:56.252Z,6.70
2022-08-31T18:24:01.114Z,6.70
2022-08-31T18:26:15.979Z,7.00
2022-08-31T18:28:21.007Z,8.30
2022-08-31T18:30:25.986Z,7.30
2022-08-31T18:32:30.947Z,7.50
2022-08-31T18:34:38.280Z,8.90
2022-08-31T18:36:44.118Z,7.70
2022-08-31T18:38:49.207Z,7.10
2022-08-31T18:40:54.342Z,10.10
2022-08-31T18:42:59.277Z,9.20
2022-08-31T18:45:04.609Z,7.20
2022-08-31T18:47:11.553Z,7.10
2022-08-31T18:49:16.507Z,8.30
2022-08-31T18:51:21.289Z,6.90
2022-08-31T18:53:28.393Z,8.90
2022-08-31T18:55:35.755Z,9.10
2022-08-31T18:57:42.799Z,7.80
2022-08-31T18:59:54.859Z,8.40
2022-08-31T19:02:00.080Z,8.40
2022-08-31T19:04:06.442Z,7.70
2022-08-31T19:06:18.518Z,7.90
2022-08-31T19:08:23.704Z,9.40
2022-08-31T19:10:28.913Z,8.60
2022-08-31T19:12:34.100Z,8.60
2022-08-31T19:14:40.605Z,8.80
2022-08-31T19:16:47.127Z,8.50
2022-08-31T19:18:59.451Z,9.20
2022-08-31T19:21:14.587Z,8.00
2022-08-31T19:23:20.333Z,8.70
2022-08-31T19:25:26.020Z,8.10
2022-08-31T19:27:31.288Z,7.80
2022-08-31T19:29:36.452Z,9.00
2022-08-31T19:31:43.938Z,7.70
2022-08-31T19:33:56.042Z,7.50
2022-08-31T19:36:04.662Z,7.40
2022-08-31T19:38:09.761Z,7.80
2022-08-31T19:40:15.466Z,7.00
2022-08-31T19:42:20.710Z,9.10
2022-08-31T19:44:26.159Z,7.80
2022-08-31T19:46:32.058Z,8.40
2022-08-31T19:48:44.021Z,7.70
2022-08-31T19:50:49.770Z,7.70
2022-08-31T19:52:55.327Z,8.50
2022-08-31T19:55:00.722Z,7.80
2022-08-31T19:57:06.338Z,9.00
2022-08-31T19:59:16.246Z,9.00
2022-08-31T20:01:23.989Z,9.50
2022-08-31T20:03:29.108Z,9.00
2022-08-31T20:05:40.093Z,10.20
2022-08-31T20:07:45.255Z,7.90
2022-08-31T20:09:50.845Z,8.00
2022-08-31T20:11:56.407Z,8.10
2022-08-31T20:14:01.241Z,7.20
2022-08-31T20:16:11.831Z,6.90
2022-08-31T20:18:16.786Z,8.60
2022-08-31T20:20:22.125Z,7.00
2022-08-31T20:22:28.099Z,7.00
2022-08-31T20:24:43.858Z,7.60
2022-08-31T20:26:51.916Z,7.70
2022-08-31T20:29:00.368Z,7.90
2022-08-31T20:31:10.583Z,7.90
2022-08-31T20:33:15.610Z,6.40
2022-08-31T20:35:20.545Z,8.70
2022-08-31T20:37:25.344Z,6.90
2022-08-31T20:39:33.449Z,7.00
2022-08-31T20:41:41.079Z,7.50
2022-08-31T20:43:45.845Z,7.90
2022-08-31T20:45:53.538Z,6.30
2022-08-31T20:47:58.320Z,7.80
2022-08-31T20:50:04.954Z,8.20
2022-08-31T20:52:11.323Z,7.80
2022-08-31T20:54:16.241Z,7.40
2022-08-31T20:56:21.012Z,7.70
2022-08-31T20:58:25.740Z,6.70
2022-08-31T21:00:30.472Z,6.50
2022-08-31T21:02:36.063Z,7.00
2022-08-31T21:04:45.768Z,7.40
2022-08-31T21:06:50.830Z,7.40
2022-08-31T21:08:56.770Z,7.90
2022-08-31T21:11:09.069Z,7.20
2022-08-31T21:13:13.909Z,6.90
2022-08-31T21:15:19.066Z,6.80
2022-08-31T21:17:23.922Z,6.80
2022-08-31T21:19:28.672Z,6.40
2022-08-31T21:21:33.515Z,7.50
2022-08-31T21:23:39.007Z,6.50
2022-08-31T21:25:46.064Z,7.10
2022-08-31T21:27:50.947Z,7.00
2022-08-31T21:29:55.659Z,6.30
2022-08-31T21:32:03.847Z,6.40
2022-08-31T21:34:10.335Z,5.90
2022-08-31T21:36:16.244Z,6.90
2022-08-31T21:38:21.039Z,7.20
2022-08-31T21:40:25.905Z,7.90
2022-08-31T21:42:30.840Z,6.20
2022-08-31T21:44:38.389Z,6.90
2022-08-31T21:46:48.429Z,7.80
2022-08-31T21:48:57.899Z,6.80
2022-08-31T21:51:13.176Z,7.90
2022-08-31T21:53:17.951Z,6.80
2022-08-31T21:55:22.855Z,7.20
2022-08-31T21:57:27.622Z,6.60
2022-08-31T21:59:34.848Z,6.80
2022-08-31T22:01:40.123Z,8.40
2022-08-31T22:03:45.614Z,7.20
2022-08-31T22:05:50.705Z,9.40
2022-08-31T22:07:55.445Z,8.50
2022-08-31T22:10:00.199Z,7.90
2022-08-31T22:12:06.899Z,6.10
2022-08-31T22:14:13.465Z,7.60
2022-08-31T22:16:19.817Z,7.10
2022-08-31T22:20:49.885Z,6.90
2022-08-31T22:22:55.098Z,6.80
2022-08-31T22:24:59.852Z,6.10
2022-08-31T22:27:08.234Z,6.50
2022-08-31T22:29:15.474Z,6.40
2022-08-31T22:31:21.681Z,5.80
2022-08-31T22:33:26.678Z,6.70
2022-08-31T22:35:31.495Z,6.70
2022-08-31T22:37:36.239Z,6.60
2022-08-31T22:39:41.272Z,6.60
2022-08-31T22:41:46.357Z,5.80
2022-08-31T22:43:51.154Z,6.40
2022-08-31T22:45:55.995Z,7.10
2022-08-31T22:48:00.759Z,6.60
2022-08-31T22:50:06.617Z,6.30
2022-08-31T22:52:16.636Z,6.90
2022-08-31T22:54:23.474Z,6.10
2022-08-31T22:56:31.835Z,6.20
2022-08-31T22:58:36.637Z,6.40
2022-08-31T23:00:41.702Z,5.50
2022-08-31T23:02:46.441Z,6.50
2022-08-31T23:04:51.646Z,7.20
2022-08-31T23:06:57.047Z,7.00
2022-08-31T23:09:03.503Z,6.00
2022-08-31T23:11:08.335Z,6.50
2022-08-31T23:13:13.079Z,6.60
2022-08-31T23:15:17.879Z,5.80
2022-08-31T23:17:22.811Z,6.10
2022-08-31T23:19:30.341Z,6.00
2022-08-31T23:21:35.810Z,6.00
2022-08-31T23:23:40.564Z,6.10
2022-08-31T23:25:45.299Z,6.40
2022-08-31T23:27:50.992Z,5.70
2022-08-31T23:29:56.815Z,7.80
2022-08-31T23:32:01.820Z,6.90
2022-08-31T23:34:08.963Z,5.20
2022-08-31T23:36:14.000Z,5.90
2022-08-31T23:38:20.044Z,5.80
2022-08-31T23:40:25.039Z,5.30
2022-08-31T23:42:29.886Z,6.10
2022-08-31T23:44:34.845Z,6.00
2022-08-31T23:46:40.945Z,5.80
2022-08-31T23:48:45.814Z,5.20
2022-08-31T23:50:50.655Z,6.70
2022-08-31T23:52:55.522Z,5.60
2022-08-31T23:55:00.390Z,5.30
2022-08-31T23:57:05.445Z,5.30
2022-08-31T23:59:13.955Z,6.00
